Aviation Digital Data Service (ADDS)

Output produced by METARs form (2016 UTC 23 January 2019)
found at http://www.aviationweather.gov/metar/data/
 
METAR text: UUBW 232000Z 10002MPS 8000 FEW003 BKN022 M19/M21 Q1021 R30/810248 NOSIG
Conditions at: UUBW (MOSCOW/NOVOYE SR, RU) observed 2000 UTC 23 January 2019
Temperature: -19.0°C (-2°F)
Dewpoint: -21.0°C (-6°F) [RH = 84%]
Pressure (altimeter): 30.15 inches Hg (1021.0 mb)
Winds: from the E (100 degrees) at 5 MPH (4 knots; 2.1 m/s)
Visibility: 5 miles ( 8 km)
Ceiling: 2200 feet AGL
Clouds: few clouds at 300 feet AGL
broken clouds at 2200 feet AGL
Weather: no significant weather observed at this time

METAR text: UUBW 231930Z 10002MPS 6000 FEW003 M17/M18 Q1021 R30/810248 NOSIG
Conditions at: UUBW (MOSCOW/NOVOYE SR, RU) observed 1930 UTC 23 January 2019
Temperature: -17.0°C ( 1°F)
Dewpoint: -18.0°C (-0°F) [RH = 92%]
Pressure (altimeter): 30.15 inches Hg (1021.0 mb)
Winds: from the E (100 degrees) at 5 MPH (4 knots; 2.1 m/s)
Visibility: 4 miles ( 6 km)
Ceiling: at least 12,000 feet AGL
Clouds: few clouds at 300 feet AGL
Weather: no significant weather observed at this time

METAR text: UUBW 231900Z 11001MPS 6000 FEW003 M19/M21 Q1021 R30/810248 NOSIG
Conditions at: UUBW (MOSCOW/NOVOYE SR, RU) observed 1900 UTC 23 January 2019
Temperature: -19.0°C (-2°F)
Dewpoint: -21.0°C (-6°F) [RH = 84%]
Pressure (altimeter): 30.15 inches Hg (1021.0 mb)
Winds: from the ESE (110 degrees) at 2 MPH (2 knots; 1.0 m/s)
Visibility: 4 miles ( 6 km)
Ceiling: at least 12,000 feet AGL
Clouds: few clouds at 300 feet AGL
Weather: no significant weather observed at this time

METAR text: UUBW 231830Z 11002MPS 5000 BR FEW002 M20/M22 Q1021 R30/810248 NOSIG RMK QBB060
Conditions at: UUBW (MOSCOW/NOVOYE SR, RU) observed 1830 UTC 23 January 2019
Temperature: -20.0°C (-4°F)
Dewpoint: -22.0°C (-8°F) [RH = 84%]
Pressure (altimeter): 30.15 inches Hg (1021.0 mb)
Winds: from the ESE (110 degrees) at 5 MPH (4 knots; 2.1 m/s)
Visibility: 3 miles ( 5 km)
Ceiling: at least 12,000 feet AGL
Clouds: few clouds at 200 feet AGL
Weather: BR  (mist)

METAR text: UUBW 231800Z 12002MPS 6000 FEW001 M20/M22 Q1021 R30/810248 NOSIG RMK QBB050
Conditions at: UUBW (MOSCOW/NOVOYE SR, RU) observed 1800 UTC 23 January 2019
Temperature: -20.0°C (-4°F)
Dewpoint: -22.0°C (-8°F) [RH = 84%]
Pressure (altimeter): 30.15 inches Hg (1021.0 mb)
Winds: from the ESE (120 degrees) at 5 MPH (4 knots; 2.1 m/s)
Visibility: 4 miles ( 6 km)
Ceiling: at least 12,000 feet AGL
Clouds: few clouds at 100 feet AGL
Weather: no significant weather observed at this time

METAR text: UUBW 231730Z 10002MPS 3200 BR FEW001 M20/M22 Q1021 R30/810248 NOSIG RMK QBB050
Conditions at: UUBW (MOSCOW/NOVOYE SR, RU) observed 1730 UTC 23 January 2019
Temperature: -20.0°C (-4°F)
Dewpoint: -22.0°C (-8°F) [RH = 84%]
Pressure (altimeter): 30.15 inches Hg (1021.0 mb)
Winds: from the E (100 degrees) at 5 MPH (4 knots; 2.1 m/s)
Visibility: 1.99 miles (3.20 km)
Ceiling: at least 12,000 feet AGL
Clouds: few clouds at 100 feet AGL
Weather: BR  (mist)

METAR text: UUBW 231700Z 08002MPS 5000 BR FEW001 M20/M22 Q1021 R30/810248 NOSIG RMK QBB040
Conditions at: UUBW (MOSCOW/NOVOYE SR, RU) observed 1700 UTC 23 January 2019
Temperature: -20.0°C (-4°F)
Dewpoint: -22.0°C (-8°F) [RH = 84%]
Pressure (altimeter): 30.15 inches Hg (1021.0 mb)
Winds: from the E (80 degrees) at 5 MPH (4 knots; 2.1 m/s)
Visibility: 3 miles ( 5 km)
Ceiling: at least 12,000 feet AGL
Clouds: few clouds at 100 feet AGL
Weather: BR  (mist)

METAR text: UUBW 231630Z 09002MPS 5000 BR FEW001 M20/M21 Q1021 R30/810248 TEMPO 0600 FZFG RMK QBB040
Conditions at: UUBW (MOSCOW/NOVOYE SR, RU) observed 1630 UTC 23 January 2019
Temperature: -20.0°C (-4°F)
Dewpoint: -21.0°C (-6°F) [RH = 92%]
Pressure (altimeter): 30.15 inches Hg (1021.0 mb)
Winds: from the E (90 degrees) at 5 MPH (4 knots; 2.1 m/s)
Visibility: 3 miles ( 5 km)
Ceiling: at least 12,000 feet AGL
Clouds: few clouds at 100 feet AGL
Weather: BR  (mist)

METAR text: UUBW 231600Z 09002MPS 3300 1000SE BR FEW001 M20/M22 Q1021 R30/810248 TEMPO 0600 FZFG RMK QBB050
Conditions at: UUBW (MOSCOW/NOVOYE SR, RU) observed 1600 UTC 23 January 2019
Temperature: -20.0°C (-4°F)
Dewpoint: -22.0°C (-8°F) [RH = 84%]
Pressure (altimeter): 30.15 inches Hg (1021.0 mb)
Winds: from the E (90 degrees) at 5 MPH (4 knots; 2.1 m/s)
Visibility: 2.05 miles (3.30 km)
Ceiling: at least 12,000 feet AGL
Clouds: few clouds at 100 feet AGL
Weather: BR  (mist)

METAR text: UUBW 231530Z 10002MPS 6000 FEW001 M19/M20 Q1021 R30/810248 NOSIG RMK QBB050
Conditions at: UUBW (MOSCOW/NOVOYE SR, RU) observed 1530 UTC 23 January 2019
Temperature: -19.0°C (-2°F)
Dewpoint: -20.0°C (-4°F) [RH = 92%]
Pressure (altimeter): 30.15 inches Hg (1021.0 mb)
Winds: from the E (100 degrees) at 5 MPH (4 knots; 2.1 m/s)
Visibility: 4 miles ( 6 km)
Ceiling: at least 12,000 feet AGL
Clouds: few clouds at 100 feet AGL
Weather: no significant weather observed at this time

METAR text: UUBW 231500Z 10002MPS 6000 FEW002 M19/M21 Q1021 R30/810248 NOSIG RMK QBB060
Conditions at: UUBW (MOSCOW/NOVOYE SR, RU) observed 1500 UTC 23 January 2019
Temperature: -19.0°C (-2°F)
Dewpoint: -21.0°C (-6°F) [RH = 84%]
Pressure (altimeter): 30.15 inches Hg (1021.0 mb)
Winds: from the E (100 degrees) at 5 MPH (4 knots; 2.1 m/s)
Visibility: 4 miles ( 6 km)
Ceiling: at least 12,000 feet AGL
Clouds: few clouds at 200 feet AGL
Weather: no significant weather observed at this time

METAR text: UUBW 231430Z 11003MPS 8000 NSC M17/M19 Q1022 R30/810248 NOSIG
Conditions at: UUBW (MOSCOW/NOVOYE SR, RU) observed 1430 UTC 23 January 2019
Temperature: -17.0°C ( 1°F)
Dewpoint: -19.0°C (-2°F) [RH = 84%]
Pressure (altimeter): 30.18 inches Hg (1022.0 mb)
Winds: from the ESE (110 degrees) at 7 MPH (6 knots; 3.1 m/s)
Visibility: 5 miles ( 8 km)
Ceiling: at least 12,000 feet AGL
Clouds: sky clear below 12,000 feet AGL
Weather: no significant weather observed at this time

METAR text: UUBW 231400Z 11003MPS 9000 NSC M17/M19 Q1022 R30/810248 NOSIG
Conditions at: UUBW (MOSCOW/NOVOYE SR, RU) observed 1400 UTC 23 January 2019
Temperature: -17.0°C ( 1°F)
Dewpoint: -19.0°C (-2°F) [RH = 84%]
Pressure (altimeter): 30.18 inches Hg (1022.0 mb)
Winds: from the ESE (110 degrees) at 7 MPH (6 knots; 3.1 m/s)
Visibility: 6 miles ( 9 km)
Ceiling: at least 12,000 feet AGL
Clouds: sky clear below 12,000 feet AGL
Weather: no significant weather observed at this time

METAR text: UUBW 231330Z 10003MPS 9000 NSC M17/M19 Q1022 R30/810248 NOSIG
Conditions at: UUBW (MOSCOW/NOVOYE SR, RU) observed 1330 UTC 23 January 2019
Temperature: -17.0°C ( 1°F)
Dewpoint: -19.0°C (-2°F) [RH = 84%]
Pressure (altimeter): 30.18 inches Hg (1022.0 mb)
Winds: from the E (100 degrees) at 7 MPH (6 knots; 3.1 m/s)
Visibility: 6 miles ( 9 km)
Ceiling: at least 12,000 feet AGL
Clouds: sky clear below 12,000 feet AGL
Weather: no significant weather observed at this time

METAR text: UUBW 231300Z 10003MPS CAVOK M15/M17 Q1022 R30/810248 NOSIG
Conditions at: UUBW (MOSCOW/NOVOYE SR, RU) observed 1300 UTC 23 January 2019
Temperature: -15.0°C ( 5°F)
Dewpoint: -17.0°C ( 1°F) [RH = 85%]
Pressure (altimeter): 30.18 inches Hg (1022.0 mb)
Winds: from the E (100 degrees) at 7 MPH (6 knots; 3.1 m/s)
Visibility: 6 or more miles (10+ km)
Ceiling: ceiling and visibility are OK
Clouds: unknown
Weather: no significant weather observed at this time

METAR text: UUBW 231230Z 12002MPS CAVOK M15/M17 Q1022 R30/810248 NOSIG
Conditions at: UUBW (MOSCOW/NOVOYE SR, RU) observed 1230 UTC 23 January 2019
Temperature: -15.0°C ( 5°F)
Dewpoint: -17.0°C ( 1°F) [RH = 85%]
Pressure (altimeter): 30.18 inches Hg (1022.0 mb)
Winds: from the ESE (120 degrees) at 5 MPH (4 knots; 2.1 m/s)
Visibility: 6 or more miles (10+ km)
Ceiling: ceiling and visibility are OK
Clouds: unknown
Weather: no significant weather observed at this time

METAR text: UUBW 231200Z 11002MPS CAVOK M15/M17 Q1021 R30/810248 NOSIG
Conditions at: UUBW (MOSCOW/NOVOYE SR, RU) observed 1200 UTC 23 January 2019
Temperature: -15.0°C ( 5°F)
Dewpoint: -17.0°C ( 1°F) [RH = 85%]
Pressure (altimeter): 30.15 inches Hg (1021.0 mb)
Winds: from the ESE (110 degrees) at 5 MPH (4 knots; 2.1 m/s)
Visibility: 6 or more miles (10+ km)
Ceiling: ceiling and visibility are OK
Clouds: unknown
Weather: no significant weather observed at this time

METAR text: UUBW 231130Z 12003MPS CAVOK M15/M18 Q1022 R30/810248 NOSIG
Conditions at: UUBW (MOSCOW/NOVOYE SR, RU) observed 1130 UTC 23 January 2019
Temperature: -15.0°C ( 5°F)
Dewpoint: -18.0°C (-0°F) [RH = 78%]
Pressure (altimeter): 30.18 inches Hg (1022.0 mb)
Winds: from the ESE (120 degrees) at 7 MPH (6 knots; 3.1 m/s)
Visibility: 6 or more miles (10+ km)
Ceiling: ceiling and visibility are OK
Clouds: unknown
Weather: no significant weather observed at this time

METAR text: UUBW 231100Z 09002MPS 9000 NSC M15/M18 Q1022 R30/810248 NOSIG
Conditions at: UUBW (MOSCOW/NOVOYE SR, RU) observed 1100 UTC 23 January 2019
Temperature: -15.0°C ( 5°F)
Dewpoint: -18.0°C (-0°F) [RH = 78%]
Pressure (altimeter): 30.18 inches Hg (1022.0 mb)
Winds: from the E (90 degrees) at 5 MPH (4 knots; 2.1 m/s)
Visibility: 6 miles ( 9 km)
Ceiling: at least 12,000 feet AGL
Clouds: sky clear below 12,000 feet AGL
Weather: no significant weather observed at this time

METAR text: UUBW 231030Z 09002MPS 9000 NSC M16/M18 Q1022 R30/810248 NOSIG
Conditions at: UUBW (MOSCOW/NOVOYE SR, RU) observed 1030 UTC 23 January 2019
Temperature: -16.0°C ( 3°F)
Dewpoint: -18.0°C (-0°F) [RH = 85%]
Pressure (altimeter): 30.18 inches Hg (1022.0 mb)
Winds: from the E (90 degrees) at 5 MPH (4 knots; 2.1 m/s)
Visibility: 6 miles ( 9 km)
Ceiling: at least 12,000 feet AGL
Clouds: sky clear below 12,000 feet AGL
Weather: no significant weather observed at this time

METAR text: UUBW 231000Z 08002MPS 9000 FEW002 M16/M18 Q1022 R30/810248 NOSIG RMK QBB080
Conditions at: UUBW (MOSCOW/NOVOYE SR, RU) observed 1000 UTC 23 January 2019
Temperature: -16.0°C ( 3°F)
Dewpoint: -18.0°C (-0°F) [RH = 85%]
Pressure (altimeter): 30.18 inches Hg (1022.0 mb)
Winds: from the E (80 degrees) at 5 MPH (4 knots; 2.1 m/s)
Visibility: 6 miles ( 9 km)
Ceiling: at least 12,000 feet AGL
Clouds: few clouds at 200 feet AGL
Weather: no significant weather observed at this time

METAR text: UUBW 230930Z 07002MPS 9000 FEW002 M18/M20 Q1022 R30/810248 NOSIG RMK QBB080
Conditions at: UUBW (MOSCOW/NOVOYE SR, RU) observed 0930 UTC 23 January 2019
Temperature: -18.0°C (-0°F)
Dewpoint: -20.0°C (-4°F) [RH = 84%]
Pressure (altimeter): 30.18 inches Hg (1022.0 mb)
Winds: from the ENE (70 degrees) at 5 MPH (4 knots; 2.1 m/s)
Visibility: 6 miles ( 9 km)
Ceiling: at least 12,000 feet AGL
Clouds: few clouds at 200 feet AGL
Weather: no significant weather observed at this time

METAR text: UUBW 230900Z 09002MPS 9000 2900NW BR FEW002 M19/M21 Q1022 R30/810248 NOSIG RMK QBB060
Conditions at: UUBW (MOSCOW/NOVOYE SR, RU) observed 0900 UTC 23 January 2019
Temperature: -19.0°C (-2°F)
Dewpoint: -21.0°C (-6°F) [RH = 84%]
Pressure (altimeter): 30.18 inches Hg (1022.0 mb)
Winds: from the E (90 degrees) at 5 MPH (4 knots; 2.1 m/s)
Visibility: 6 miles ( 9 km)
Ceiling: at least 12,000 feet AGL
Clouds: few clouds at 200 feet AGL
Weather: BR  (mist)

METAR text: UUBW 230830Z 10002MPS 9000 NSC M18/M20 Q1022 R30/810248 NOSIG
Conditions at: UUBW (MOSCOW/NOVOYE SR, RU) observed 0830 UTC 23 January 2019
Temperature: -18.0°C (-0°F)
Dewpoint: -20.0°C (-4°F) [RH = 84%]
Pressure (altimeter): 30.18 inches Hg (1022.0 mb)
Winds: from the E (100 degrees) at 5 MPH (4 knots; 2.1 m/s)
Visibility: 6 miles ( 9 km)
Ceiling: at least 12,000 feet AGL
Clouds: sky clear below 12,000 feet AGL
Weather: no significant weather observed at this time

METAR text: UUBW 230800Z 11002MPS 9000 FEW002 M18/M20 Q1022 R30/810248 NOSIG RMK QBB070
Conditions at: UUBW (MOSCOW/NOVOYE SR, RU) observed 0800 UTC 23 January 2019
Temperature: -18.0°C (-0°F)
Dewpoint: -20.0°C (-4°F) [RH = 84%]
Pressure (altimeter): 30.18 inches Hg (1022.0 mb)
Winds: from the ESE (110 degrees) at 5 MPH (4 knots; 2.1 m/s)
Visibility: 6 miles ( 9 km)
Ceiling: at least 12,000 feet AGL
Clouds: few clouds at 200 feet AGL
Weather: no significant weather observed at this time

METAR text: UUBW 230730Z 16001MPS 9000 NSC M18/M20 Q1022 R30/810248 TEMPO 0300 FZFG
Conditions at: UUBW (MOSCOW/NOVOYE SR, RU) observed 0730 UTC 23 January 2019
Temperature: -18.0°C (-0°F)
Dewpoint: -20.0°C (-4°F) [RH = 84%]
Pressure (altimeter): 30.18 inches Hg (1022.0 mb)
Winds: from the SSE (160 degrees) at 2 MPH (2 knots; 1.0 m/s)
Visibility: 6 miles ( 9 km)
Ceiling: at least 12,000 feet AGL
Clouds: sky clear below 12,000 feet AGL
Weather: no significant weather observed at this time

METAR text: UUBW 230700Z 21002MPS 6000 0900SE R30/0900U FZFG NSC M19/M21 Q1022 R30/810248 TEMPO 0300 FZFG
Conditions at: UUBW (MOSCOW/NOVOYE SR, RU) observed 0700 UTC 23 January 2019
Temperature: -19.0°C (-2°F)
Dewpoint: -21.0°C (-6°F) [RH = 84%]
Pressure (altimeter): 30.18 inches Hg (1022.0 mb)
Winds: from the SSW (210 degrees) at 5 MPH (4 knots; 2.1 m/s)
Visibility: 4 miles ( 6 km)
Ceiling: at least 12,000 feet AGL
Clouds: sky clear below 12,000 feet AGL
Weather: FZFG  (freezing fog)

METAR text: UUBW 230630Z 20002MPS 9000 1200SE BR NSC M20/M22 Q1022 R30/810248 TEMPO 0300 FZFG
Conditions at: UUBW (MOSCOW/NOVOYE SR, RU) observed 0630 UTC 23 January 2019
Temperature: -20.0°C (-4°F)
Dewpoint: -22.0°C (-8°F) [RH = 84%]
Pressure (altimeter): 30.18 inches Hg (1022.0 mb)
Winds: from the SSW (200 degrees) at 5 MPH (4 knots; 2.1 m/s)
Visibility: 6 miles ( 9 km)
Ceiling: at least 12,000 feet AGL
Clouds: sky clear below 12,000 feet AGL
Weather: BR  (mist)

METAR text: UUBW 230600Z VRB01MPS 4900 1300SE BR NSC M21/M23 Q1022 R30/410542 TEMPO 0300 FZFG
Conditions at: UUBW (MOSCOW/NOVOYE SR, RU) observed 0600 UTC 23 January 2019
Temperature: -21.0°C (-6°F)
Dewpoint: -23.0°C (-9°F) [RH = 84%]
Pressure (altimeter): 30.18 inches Hg (1022.0 mb)
Winds: variable direction winds at 2 MPH (2 knots; 1.0 m/s)
Visibility: 3 miles ( 5 km)
Ceiling: at least 12,000 feet AGL
Clouds: sky clear below 12,000 feet AGL
Weather: BR  (mist)

METAR text: UUBW 230530Z 20001MPS 7000 NSC M19/M21 Q1021 R30/410542 TEMPO 0300 FZFG
Conditions at: UUBW (MOSCOW/NOVOYE SR, RU) observed 0530 UTC 23 January 2019
Temperature: -19.0°C (-2°F)
Dewpoint: -21.0°C (-6°F) [RH = 84%]
Pressure (altimeter): 30.15 inches Hg (1021.0 mb)
Winds: from the SSW (200 degrees) at 2 MPH (2 knots; 1.0 m/s)
Visibility: 4 miles ( 7 km)
Ceiling: at least 12,000 feet AGL
Clouds: sky clear below 12,000 feet AGL
Weather: no significant weather observed at this time

METAR text: UUBW 230500Z 22001MPS 8000 NSC M17/M19 Q1021 R30/410542 TEMPO 0300 FZFG
Conditions at: UUBW (MOSCOW/NOVOYE SR, RU) observed 0500 UTC 23 January 2019
Temperature: -17.0°C ( 1°F)
Dewpoint: -19.0°C (-2°F) [RH = 84%]
Pressure (altimeter): 30.15 inches Hg (1021.0 mb)
Winds: from the SW (220 degrees) at 2 MPH (2 knots; 1.0 m/s)
Visibility: 5 miles ( 8 km)
Ceiling: at least 12,000 feet AGL
Clouds: sky clear below 12,000 feet AGL
Weather: no significant weather observed at this time

METAR text: UUBW 230430Z 22002MPS CAVOK M18/M20 Q1021 R30/410542 NOSIG
Conditions at: UUBW (MOSCOW/NOVOYE SR, RU) observed 0430 UTC 23 January 2019
Temperature: -18.0°C (-0°F)
Dewpoint: -20.0°C (-4°F) [RH = 84%]
Pressure (altimeter): 30.15 inches Hg (1021.0 mb)
Winds: from the SW (220 degrees) at 5 MPH (4 knots; 2.1 m/s)
Visibility: 6 or more miles (10+ km)
Ceiling: ceiling and visibility are OK
Clouds: unknown
Weather: no significant weather observed at this time

METAR text: UUBW 230400Z 23001MPS 7000 NSC M17/M19 Q1021 R30/410542 NOSIG
Conditions at: UUBW (MOSCOW/NOVOYE SR, RU) observed 0400 UTC 23 January 2019
Temperature: -17.0°C ( 1°F)
Dewpoint: -19.0°C (-2°F) [RH = 84%]
Pressure (altimeter): 30.15 inches Hg (1021.0 mb)
Winds: from the SW (230 degrees) at 2 MPH (2 knots; 1.0 m/s)
Visibility: 4 miles ( 7 km)
Ceiling: at least 12,000 feet AGL
Clouds: sky clear below 12,000 feet AGL
Weather: no significant weather observed at this time

METAR text: UUBW 230330Z 23001MPS 7000 NSC M18/M19 Q1021 R30/410542 NOSIG
Conditions at: UUBW (MOSCOW/NOVOYE SR, RU) observed 0330 UTC 23 January 2019
Temperature: -18.0°C (-0°F)
Dewpoint: -19.0°C (-2°F) [RH = 92%]
Pressure (altimeter): 30.15 inches Hg (1021.0 mb)
Winds: from the SW (230 degrees) at 2 MPH (2 knots; 1.0 m/s)
Visibility: 4 miles ( 7 km)
Ceiling: at least 12,000 feet AGL
Clouds: sky clear below 12,000 feet AGL
Weather: no significant weather observed at this time

METAR text: UUBW 230300Z 21002MPS 8000 FEW002 M17/M19 Q1021 R30/410542 NOSIG RMK QBB080
Conditions at: UUBW (MOSCOW/NOVOYE SR, RU) observed 0300 UTC 23 January 2019
Temperature: -17.0°C ( 1°F)
Dewpoint: -19.0°C (-2°F) [RH = 84%]
Pressure (altimeter): 30.15 inches Hg (1021.0 mb)
Winds: from the SSW (210 degrees) at 5 MPH (4 knots; 2.1 m/s)
Visibility: 5 miles ( 8 km)
Ceiling: at least 12,000 feet AGL
Clouds: few clouds at 200 feet AGL
Weather: no significant weather observed at this time

METAR text: UUBW 230230Z 20001MPS 8000 FEW002 M17/M18 Q1020 R30/410542 NOSIG RMK QBB080
Conditions at: UUBW (MOSCOW/NOVOYE SR, RU) observed 0230 UTC 23 January 2019
Temperature: -17.0°C ( 1°F)
Dewpoint: -18.0°C (-0°F) [RH = 92%]
Pressure (altimeter): 30.12 inches Hg (1020.0 mb)
Winds: from the SSW (200 degrees) at 2 MPH (2 knots; 1.0 m/s)
Visibility: 5 miles ( 8 km)
Ceiling: at least 12,000 feet AGL
Clouds: few clouds at 200 feet AGL
Weather: no significant weather observed at this time

METAR text: UUBW 230200Z 25002MPS 210V280 8000 FEW002 M17/M19 Q1020 R30/410542 NOSIG RMK QBB080
Conditions at: UUBW (MOSCOW/NOVOYE SR, RU) observed 0200 UTC 23 January 2019
Temperature: -17.0°C ( 1°F)
Dewpoint: -19.0°C (-2°F) [RH = 84%]
Pressure (altimeter): 30.12 inches Hg (1020.0 mb)
Winds: from the WSW (250 degrees) at 5 MPH (4 knots; 2.1 m/s)
Visibility: 5 miles ( 8 km)
Ceiling: at least 12,000 feet AGL
Clouds: few clouds at 200 feet AGL
Weather: no significant weather observed at this time

METAR text: UUBW 230130Z 22002MPS 9999 FEW006 M16/M18 Q1020 R30/410542 NOSIG
Conditions at: UUBW (MOSCOW/NOVOYE SR, RU) observed 0130 UTC 23 January 2019
Temperature: -16.0°C ( 3°F)
Dewpoint: -18.0°C (-0°F) [RH = 85%]
Pressure (altimeter): 30.12 inches Hg (1020.0 mb)
Winds: from the SW (220 degrees) at 5 MPH (4 knots; 2.1 m/s)
Visibility: 6 or more miles (10+ km)
Ceiling: at least 12,000 feet AGL
Clouds: few clouds at 600 feet AGL
Weather: no significant weather observed at this time

METAR text: UUBW 230100Z 00000MPS 9999 FEW006 M16/M17 Q1020 R30/410542 NOSIG
Conditions at: UUBW (MOSCOW/NOVOYE SR, RU) observed 0100 UTC 23 January 2019
Temperature: -16.0°C ( 3°F)
Dewpoint: -17.0°C ( 1°F) [RH = 92%]
Pressure (altimeter): 30.12 inches Hg (1020.0 mb)
Winds: calm
Visibility: 6 or more miles (10+ km)
Ceiling: at least 12,000 feet AGL
Clouds: few clouds at 600 feet AGL
Weather: no significant weather observed at this time

METAR text: UUBW 230030Z 17001MPS 9999 FEW006 M16/M17 Q1020 R30/410542 NOSIG
Conditions at: UUBW (MOSCOW/NOVOYE SR, RU) observed 0030 UTC 23 January 2019
Temperature: -16.0°C ( 3°F)
Dewpoint: -17.0°C ( 1°F) [RH = 92%]
Pressure (altimeter): 30.12 inches Hg (1020.0 mb)
Winds: from the S (170 degrees) at 2 MPH (2 knots; 1.0 m/s)
Visibility: 6 or more miles (10+ km)
Ceiling: at least 12,000 feet AGL
Clouds: few clouds at 600 feet AGL
Weather: no significant weather observed at this time

METAR text: UUBW 230000Z VRB01MPS 9999 FEW005 M17/M19 Q1020 R30/410542 NOSIG
Conditions at: UUBW (MOSCOW/NOVOYE SR, RU) observed 0000 UTC 23 January 2019
Temperature: -17.0°C ( 1°F)
Dewpoint: -19.0°C (-2°F) [RH = 84%]
Pressure (altimeter): 30.12 inches Hg (1020.0 mb)
Winds: variable direction winds at 2 MPH (2 knots; 1.0 m/s)
Visibility: 6 or more miles (10+ km)
Ceiling: at least 12,000 feet AGL
Clouds: few clouds at 500 feet AGL
Weather: no significant weather observed at this time

METAR text: UUBW 222330Z 20002MPS 9999 FEW005 M16/M18 Q1020 R30/410542 NOSIG
Conditions at: UUBW (MOSCOW/NOVOYE SR, RU) observed 2330 UTC 22 January 2019
Temperature: -16.0°C ( 3°F)
Dewpoint: -18.0°C (-0°F) [RH = 85%]
Pressure (altimeter): 30.12 inches Hg (1020.0 mb)
Winds: from the SSW (200 degrees) at 5 MPH (4 knots; 2.1 m/s)
Visibility: 6 or more miles (10+ km)
Ceiling: at least 12,000 feet AGL
Clouds: few clouds at 500 feet AGL
Weather: no significant weather observed at this time

METAR text: UUBW 222300Z 22002MPS 9999 FEW006 M16/M18 Q1020 R30/410542 NOSIG
Conditions at: UUBW (MOSCOW/NOVOYE SR, RU) observed 2300 UTC 22 January 2019
Temperature: -16.0°C ( 3°F)
Dewpoint: -18.0°C (-0°F) [RH = 85%]
Pressure (altimeter): 30.12 inches Hg (1020.0 mb)
Winds: from the SW (220 degrees) at 5 MPH (4 knots; 2.1 m/s)
Visibility: 6 or more miles (10+ km)
Ceiling: at least 12,000 feet AGL
Clouds: few clouds at 600 feet AGL
Weather: no significant weather observed at this time

METAR text: UUBW 222230Z 22002MPS CAVOK M16/M18 Q1020 R30/410542 NOSIG
Conditions at: UUBW (MOSCOW/NOVOYE SR, RU) observed 2230 UTC 22 January 2019
Temperature: -16.0°C ( 3°F)
Dewpoint: -18.0°C (-0°F) [RH = 85%]
Pressure (altimeter): 30.12 inches Hg (1020.0 mb)
Winds: from the SW (220 degrees) at 5 MPH (4 knots; 2.1 m/s)
Visibility: 6 or more miles (10+ km)
Ceiling: ceiling and visibility are OK
Clouds: unknown
Weather: no significant weather observed at this time

METAR text: UUBW 222200Z 22002MPS CAVOK M16/M17 Q1020 R30/410542 NOSIG
Conditions at: UUBW (MOSCOW/NOVOYE SR, RU) observed 2200 UTC 22 January 2019
Temperature: -16.0°C ( 3°F)
Dewpoint: -17.0°C ( 1°F) [RH = 92%]
Pressure (altimeter): 30.12 inches Hg (1020.0 mb)
Winds: from the SW (220 degrees) at 5 MPH (4 knots; 2.1 m/s)
Visibility: 6 or more miles (10+ km)
Ceiling: ceiling and visibility are OK
Clouds: unknown
Weather: no significant weather observed at this time

METAR text: UUBW 222130Z 25002MPS CAVOK M16/M18 Q1020 R30/410542 NOSIG
Conditions at: UUBW (MOSCOW/NOVOYE SR, RU) observed 2130 UTC 22 January 2019
Temperature: -16.0°C ( 3°F)
Dewpoint: -18.0°C (-0°F) [RH = 85%]
Pressure (altimeter): 30.12 inches Hg (1020.0 mb)
Winds: from the WSW (250 degrees) at 5 MPH (4 knots; 2.1 m/s)
Visibility: 6 or more miles (10+ km)
Ceiling: ceiling and visibility are OK
Clouds: unknown
Weather: no significant weather observed at this time

METAR text: UUBW 222100Z 25002MPS CAVOK M17/M18 Q1020 R30/410542 NOSIG
Conditions at: UUBW (MOSCOW/NOVOYE SR, RU) observed 2100 UTC 22 January 2019
Temperature: -17.0°C ( 1°F)
Dewpoint: -18.0°C (-0°F) [RH = 92%]
Pressure (altimeter): 30.12 inches Hg (1020.0 mb)
Winds: from the WSW (250 degrees) at 5 MPH (4 knots; 2.1 m/s)
Visibility: 6 or more miles (10+ km)
Ceiling: ceiling and visibility are OK
Clouds: unknown
Weather: no significant weather observed at this time

METAR text: UUBW 222030Z VRB01MPS CAVOK M16/M18 Q1019 R30/410542 NOSIG
Conditions at: UUBW (MOSCOW/NOVOYE SR, RU) observed 2030 UTC 22 January 2019
Temperature: -16.0°C ( 3°F)
Dewpoint: -18.0°C (-0°F) [RH = 85%]
Pressure (altimeter): 30.09 inches Hg (1019.0 mb)
Winds: variable direction winds at 2 MPH (2 knots; 1.0 m/s)
Visibility: 6 or more miles (10+ km)
Ceiling: ceiling and visibility are OK
Clouds: unknown
Weather: no significant weather observed at this time

METAR text: UUBW 222000Z 24003MPS CAVOK M16/M18 Q1019 R30/410542 NOSIG
Conditions at: UUBW (MOSCOW/NOVOYE SR, RU) observed 2000 UTC 22 January 2019
Temperature: -16.0°C ( 3°F)
Dewpoint: -18.0°C (-0°F) [RH = 85%]
Pressure (altimeter): 30.09 inches Hg (1019.0 mb)
Winds: from the WSW (240 degrees) at 7 MPH (6 knots; 3.1 m/s)
Visibility: 6 or more miles (10+ km)
Ceiling: ceiling and visibility are OK
Clouds: unknown
Weather: no significant weather observed at this time

METAR text: UUBW 221930Z 24002MPS 9000 NSC M16/M17 Q1019 R30/410542 NOSIG
Conditions at: UUBW (MOSCOW/NOVOYE SR, RU) observed 1930 UTC 22 January 2019
Temperature: -16.0°C ( 3°F)
Dewpoint: -17.0°C ( 1°F) [RH = 92%]
Pressure (altimeter): 30.09 inches Hg (1019.0 mb)
Winds: from the WSW (240 degrees) at 5 MPH (4 knots; 2.1 m/s)
Visibility: 6 miles ( 9 km)
Ceiling: at least 12,000 feet AGL
Clouds: sky clear below 12,000 feet AGL
Weather: no significant weather observed at this time

METAR text: UUBW 221900Z 24002MPS CAVOK M16/M17 Q1019 R30/410542 NOSIG
Conditions at: UUBW (MOSCOW/NOVOYE SR, RU) observed 1900 UTC 22 January 2019
Temperature: -16.0°C ( 3°F)
Dewpoint: -17.0°C ( 1°F) [RH = 92%]
Pressure (altimeter): 30.09 inches Hg (1019.0 mb)
Winds: from the WSW (240 degrees) at 5 MPH (4 knots; 2.1 m/s)
Visibility: 6 or more miles (10+ km)
Ceiling: ceiling and visibility are OK
Clouds: unknown
Weather: no significant weather observed at this time

METAR text: UUBW 221830Z 24002MPS 9000 NSC M15/M17 Q1019 R30/410542 NOSIG
Conditions at: UUBW (MOSCOW/NOVOYE SR, RU) observed 1830 UTC 22 January 2019
Temperature: -15.0°C ( 5°F)
Dewpoint: -17.0°C ( 1°F) [RH = 85%]
Pressure (altimeter): 30.09 inches Hg (1019.0 mb)
Winds: from the WSW (240 degrees) at 5 MPH (4 knots; 2.1 m/s)
Visibility: 6 miles ( 9 km)
Ceiling: at least 12,000 feet AGL
Clouds: sky clear below 12,000 feet AGL
Weather: no significant weather observed at this time

METAR text: UUBW 221800Z 26002MPS 9000 NSC M15/M17 Q1019 R30/410542 NOSIG
Conditions at: UUBW (MOSCOW/NOVOYE SR, RU) observed 1800 UTC 22 January 2019
Temperature: -15.0°C ( 5°F)
Dewpoint: -17.0°C ( 1°F) [RH = 85%]
Pressure (altimeter): 30.09 inches Hg (1019.0 mb)
Winds: from the W (260 degrees) at 5 MPH (4 knots; 2.1 m/s)
Visibility: 6 miles ( 9 km)
Ceiling: at least 12,000 feet AGL
Clouds: sky clear below 12,000 feet AGL
Weather: no significant weather observed at this time

METAR text: UUBW 221730Z 26003MPS CAVOK M15/M17 Q1019 R30/410542 NOSIG
Conditions at: UUBW (MOSCOW/NOVOYE SR, RU) observed 1730 UTC 22 January 2019
Temperature: -15.0°C ( 5°F)
Dewpoint: -17.0°C ( 1°F) [RH = 85%]
Pressure (altimeter): 30.09 inches Hg (1019.0 mb)
Winds: from the W (260 degrees) at 7 MPH (6 knots; 3.1 m/s)
Visibility: 6 or more miles (10+ km)
Ceiling: ceiling and visibility are OK
Clouds: unknown
Weather: no significant weather observed at this time

METAR text: UUBW 221700Z 26003MPS CAVOK M14/M17 Q1018 R30/410542 NOSIG
Conditions at: UUBW (MOSCOW/NOVOYE SR, RU) observed 1700 UTC 22 January 2019
Temperature: -14.0°C ( 7°F)
Dewpoint: -17.0°C ( 1°F) [RH = 78%]
Pressure (altimeter): 30.06 inches Hg (1018.0 mb)
Winds: from the W (260 degrees) at 7 MPH (6 knots; 3.1 m/s)
Visibility: 6 or more miles (10+ km)
Ceiling: ceiling and visibility are OK
Clouds: unknown
Weather: no significant weather observed at this time

METAR text: UUBW 221630Z 24003MPS CAVOK M14/M16 Q1018 R30/410542 NOSIG
Conditions at: UUBW (MOSCOW/NOVOYE SR, RU) observed 1630 UTC 22 January 2019
Temperature: -14.0°C ( 7°F)
Dewpoint: -16.0°C ( 3°F) [RH = 85%]
Pressure (altimeter): 30.06 inches Hg (1018.0 mb)
Winds: from the WSW (240 degrees) at 7 MPH (6 knots; 3.1 m/s)
Visibility: 6 or more miles (10+ km)
Ceiling: ceiling and visibility are OK
Clouds: unknown
Weather: no significant weather observed at this time

METAR text: UUBW 221600Z 25003MPS CAVOK M14/M16 Q1018 R30/410542 NOSIG
Conditions at: UUBW (MOSCOW/NOVOYE SR, RU) observed 1600 UTC 22 January 2019
Temperature: -14.0°C ( 7°F)
Dewpoint: -16.0°C ( 3°F) [RH = 85%]
Pressure (altimeter): 30.06 inches Hg (1018.0 mb)
Winds: from the WSW (250 degrees) at 7 MPH (6 knots; 3.1 m/s)
Visibility: 6 or more miles (10+ km)
Ceiling: ceiling and visibility are OK
Clouds: unknown
Weather: no significant weather observed at this time

METAR text: UUBW 221530Z 25003MPS CAVOK M14/M16 Q1018 R30/410542 NOSIG
Conditions at: UUBW (MOSCOW/NOVOYE SR, RU) observed 1530 UTC 22 January 2019
Temperature: -14.0°C ( 7°F)
Dewpoint: -16.0°C ( 3°F) [RH = 85%]
Pressure (altimeter): 30.06 inches Hg (1018.0 mb)
Winds: from the WSW (250 degrees) at 7 MPH (6 knots; 3.1 m/s)
Visibility: 6 or more miles (10+ km)
Ceiling: ceiling and visibility are OK
Clouds: unknown
Weather: no significant weather observed at this time

METAR text: UUBW 221500Z 25003MPS CAVOK M14/M16 Q1018 R30/410542 NOSIG
Conditions at: UUBW (MOSCOW/NOVOYE SR, RU) observed 1500 UTC 22 January 2019
Temperature: -14.0°C ( 7°F)
Dewpoint: -16.0°C ( 3°F) [RH = 85%]
Pressure (altimeter): 30.06 inches Hg (1018.0 mb)
Winds: from the WSW (250 degrees) at 7 MPH (6 knots; 3.1 m/s)
Visibility: 6 or more miles (10+ km)
Ceiling: ceiling and visibility are OK
Clouds: unknown
Weather: no significant weather observed at this time

METAR text: UUBW 221430Z 24002MPS 9999 FEW017 M13/M16 Q1018 R30/410542 NOSIG
Conditions at: UUBW (MOSCOW/NOVOYE SR, RU) observed 1430 UTC 22 January 2019
Temperature: -13.0°C ( 9°F)
Dewpoint: -16.0°C ( 3°F) [RH = 78%]
Pressure (altimeter): 30.06 inches Hg (1018.0 mb)
Winds: from the WSW (240 degrees) at 5 MPH (4 knots; 2.1 m/s)
Visibility: 6 or more miles (10+ km)
Ceiling: at least 12,000 feet AGL
Clouds: few clouds at 1700 feet AGL
Weather: no significant weather observed at this time

METAR text: UUBW 221400Z 24002MPS CAVOK M13/M16 Q1018 R30/410542 NOSIG
Conditions at: UUBW (MOSCOW/NOVOYE SR, RU) observed 1400 UTC 22 January 2019
Temperature: -13.0°C ( 9°F)
Dewpoint: -16.0°C ( 3°F) [RH = 78%]
Pressure (altimeter): 30.06 inches Hg (1018.0 mb)
Winds: from the WSW (240 degrees) at 5 MPH (4 knots; 2.1 m/s)
Visibility: 6 or more miles (10+ km)
Ceiling: ceiling and visibility are OK
Clouds: unknown
Weather: no significant weather observed at this time

METAR text: UUBW 221330Z 24002MPS CAVOK M13/M16 Q1017 R30/410542 NOSIG
Conditions at: UUBW (MOSCOW/NOVOYE SR, RU) observed 1330 UTC 22 January 2019
Temperature: -13.0°C ( 9°F)
Dewpoint: -16.0°C ( 3°F) [RH = 78%]
Pressure (altimeter): 30.03 inches Hg (1017.0 mb)
Winds: from the WSW (240 degrees) at 5 MPH (4 knots; 2.1 m/s)
Visibility: 6 or more miles (10+ km)
Ceiling: ceiling and visibility are OK
Clouds: unknown
Weather: no significant weather observed at this time

METAR text: UUBW 221300Z 25002MPS CAVOK M12/M16 Q1017 R30/410542 NOSIG
Conditions at: UUBW (MOSCOW/NOVOYE SR, RU) observed 1300 UTC 22 January 2019
Temperature: -12.0°C (10°F)
Dewpoint: -16.0°C ( 3°F) [RH = 72%]
Pressure (altimeter): 30.03 inches Hg (1017.0 mb)
Winds: from the WSW (250 degrees) at 5 MPH (4 knots; 2.1 m/s)
Visibility: 6 or more miles (10+ km)
Ceiling: ceiling and visibility are OK
Clouds: unknown
Weather: no significant weather observed at this time

METAR text: UUBW 221230Z 24002MPS CAVOK M12/M16 Q1017 R30/410542 NOSIG
Conditions at: UUBW (MOSCOW/NOVOYE SR, RU) observed 1230 UTC 22 January 2019
Temperature: -12.0°C (10°F)
Dewpoint: -16.0°C ( 3°F) [RH = 72%]
Pressure (altimeter): 30.03 inches Hg (1017.0 mb)
Winds: from the WSW (240 degrees) at 5 MPH (4 knots; 2.1 m/s)
Visibility: 6 or more miles (10+ km)
Ceiling: ceiling and visibility are OK
Clouds: unknown
Weather: no significant weather observed at this time

METAR text: UUBW 221200Z 25003MPS CAVOK M12/M16 Q1017 R30/410542 NOSIG
Conditions at: UUBW (MOSCOW/NOVOYE SR, RU) observed 1200 UTC 22 January 2019
Temperature: -12.0°C (10°F)
Dewpoint: -16.0°C ( 3°F) [RH = 72%]
Pressure (altimeter): 30.03 inches Hg (1017.0 mb)
Winds: from the WSW (250 degrees) at 7 MPH (6 knots; 3.1 m/s)
Visibility: 6 or more miles (10+ km)
Ceiling: ceiling and visibility are OK
Clouds: unknown
Weather: no significant weather observed at this time

METAR text: UUBW 221130Z 26004MPS CAVOK M12/M16 Q1017 R30/410542 NOSIG
Conditions at: UUBW (MOSCOW/NOVOYE SR, RU) observed 1130 UTC 22 January 2019
Temperature: -12.0°C (10°F)
Dewpoint: -16.0°C ( 3°F) [RH = 72%]
Pressure (altimeter): 30.03 inches Hg (1017.0 mb)
Winds: from the W (260 degrees) at 9 MPH (8 knots; 4.1 m/s)
Visibility: 6 or more miles (10+ km)
Ceiling: ceiling and visibility are OK
Clouds: unknown
Weather: no significant weather observed at this time

METAR text: UUBW 221100Z 26003MPS CAVOK M12/M16 Q1016 R30/410542 NOSIG
Conditions at: UUBW (MOSCOW/NOVOYE SR, RU) observed 1100 UTC 22 January 2019
Temperature: -12.0°C (10°F)
Dewpoint: -16.0°C ( 3°F) [RH = 72%]
Pressure (altimeter): 30.00 inches Hg (1016.0 mb)
Winds: from the W (260 degrees) at 7 MPH (6 knots; 3.1 m/s)
Visibility: 6 or more miles (10+ km)
Ceiling: ceiling and visibility are OK
Clouds: unknown
Weather: no significant weather observed at this time

METAR text: UUBW 221030Z 28003MPS CAVOK M12/M16 Q1016 R30/410542 NOSIG
Conditions at: UUBW (MOSCOW/NOVOYE SR, RU) observed 1030 UTC 22 January 2019
Temperature: -12.0°C (10°F)
Dewpoint: -16.0°C ( 3°F) [RH = 72%]
Pressure (altimeter): 30.00 inches Hg (1016.0 mb)
Winds: from the W (280 degrees) at 7 MPH (6 knots; 3.1 m/s)
Visibility: 6 or more miles (10+ km)
Ceiling: ceiling and visibility are OK
Clouds: unknown
Weather: no significant weather observed at this time

METAR text: UUBW 221000Z 28004MPS CAVOK M13/M16 Q1016 R30/410542 NOSIG
Conditions at: UUBW (MOSCOW/NOVOYE SR, RU) observed 1000 UTC 22 January 2019
Temperature: -13.0°C ( 9°F)
Dewpoint: -16.0°C ( 3°F) [RH = 78%]
Pressure (altimeter): 30.00 inches Hg (1016.0 mb)
Winds: from the W (280 degrees) at 9 MPH (8 knots; 4.1 m/s)
Visibility: 6 or more miles (10+ km)
Ceiling: ceiling and visibility are OK
Clouds: unknown
Weather: no significant weather observed at this time

METAR text: UUBW 220930Z 30003MPS CAVOK M13/M16 Q1016 R30/410542 NOSIG
Conditions at: UUBW (MOSCOW/NOVOYE SR, RU) observed 0930 UTC 22 January 2019
Temperature: -13.0°C ( 9°F)
Dewpoint: -16.0°C ( 3°F) [RH = 78%]
Pressure (altimeter): 30.00 inches Hg (1016.0 mb)
Winds: from the WNW (300 degrees) at 7 MPH (6 knots; 3.1 m/s)
Visibility: 6 or more miles (10+ km)
Ceiling: ceiling and visibility are OK
Clouds: unknown
Weather: no significant weather observed at this time

METAR text: UUBW 220900Z 29004MPS 9999 SCT018 M14/M17 Q1016 R30/410542 NOSIG
Conditions at: UUBW (MOSCOW/NOVOYE SR, RU) observed 0900 UTC 22 January 2019
Temperature: -14.0°C ( 7°F)
Dewpoint: -17.0°C ( 1°F) [RH = 78%]
Pressure (altimeter): 30.00 inches Hg (1016.0 mb)
Winds: from the WNW (290 degrees) at 9 MPH (8 knots; 4.1 m/s)
Visibility: 6 or more miles (10+ km)
Ceiling: at least 12,000 feet AGL
Clouds: scattered clouds at 1800 feet AGL
Weather: no significant weather observed at this time

METAR text: UUBW 220830Z 30003MPS 9999 SCT018 M14/M17 Q1016 R30/410542 NOSIG
Conditions at: UUBW (MOSCOW/NOVOYE SR, RU) observed 0830 UTC 22 January 2019
Temperature: -14.0°C ( 7°F)
Dewpoint: -17.0°C ( 1°F) [RH = 78%]
Pressure (altimeter): 30.00 inches Hg (1016.0 mb)
Winds: from the WNW (300 degrees) at 7 MPH (6 knots; 3.1 m/s)
Visibility: 6 or more miles (10+ km)
Ceiling: at least 12,000 feet AGL
Clouds: scattered clouds at 1800 feet AGL
Weather: no significant weather observed at this time

Forecast for: UUBW (MOSCOW/NOVOYE SR, RU)
Text: TAF UUBW 231658Z 2318/2418 10003MPS 3100 BR FEW005 SCT011 TXM13/2412Z TNM22/2406Z
Forecast period: 1800 UTC 23 January 2019 to 0800 UTC 24 January 2019
Forecast type: FROM: standard forecast or significant change
Winds: from the E (100 degrees) at 7 MPH (6 knots; 3.1 m/s)
Visibility: 1.93 miles (3.11 km)
Ceiling: at least 12,000 feet AGL
Clouds: few clouds at 500 feet AGL
scattered clouds at 1100 feet AGL
Weather: BR  (mist)
Text: TEMPO 2318/2408 0300 FZFG BKN002
Forecast period: 1800 UTC 23 January 2019 to 0800 UTC 24 January 2019
Forecast type: TEMPORARY: The following changes expected for less than half the time period
Visibility: 0.19 miles (0.31 km)
Ceiling: 200 feet AGL
Clouds: broken clouds at 200 feet AGL
Weather: FZFG  (freezing fog)
Text: BECMG 2408/2410 6000 NSW
Forecast period: 0800 to 1800 UTC 24 January 2019
Forecast type: BECOMING: Conditions expected to become as follows by 1000 UTC 24 January 2019
Winds: from the E (100 degrees) at 7 MPH (6 knots; 3.1 m/s)
Visibility: 4 miles (6 km)
Ceiling: at least 12,000 feet AGL
Clouds: few clouds at 500 feet AGL
scattered clouds at 1100 feet AGL
Weather: NSW  (no significant weather)